Tracyton, Washington
Current Conditions -  °F | °C
As of 8:35 AM on Tuesday 21 Oct 2014 (Local Time) from KPWT Reporting Station
Overcast Overcast  
Wind Chill: 54°   Ceiling: 500
Heat Index: 54°   Visibility: 10mi
Dew Point: 52°   Wind: 13mph
Humidity: 94%   Direction: 200°SSW
Pressure: 29.9"   Gusts: 18mph
Location:  47.61°N, 122.66°W
Report Text: KPWT 211535Z AUTO 20011G16KT 10SM BKN005 BKN014 OVC021 12/11 A2990 RMK AO1 P0005
Loading
Personal Weather Stations






























Interactive Weather Map
Tropical Storm Tracking
New forecast layout! Learn more

10-Day Weather Forecast

Advertisements
Track Severe Weather on mobile